Time;durP1;ratioP1;P1;durP2;ratioP2;P2;SDS_P1;SDS_P2;PMS_P1;PMS_P2;Temp;Humidity;BMP_temperature;BMP_pressure;BME280_temperature;BME280_humidity;BME280_pressure;Samples;Min_cycle;Max_cycle;Signal;HPM_P1;HPM_P2
2022/11/15 00:02:38;;;;;;;2.40;2.25;;;;;;;5.80;91.32;99716.41;4455478;32;34375;-73
2022/11/15 00:05:24;;;;;;;1.70;1.53;;;;;;;5.44;91.87;99711.59;4454451;32;33512;-73
2022/11/15 00:08:11;;;;;;;3.92;3.42;;;;;;;6.34;87.95;99718.91;4454486;32;34775;-74
2022/11/15 00:10:59;;;;;;;7.22;6.57;;;;;;;6.77;84.00;99706.47;4454071;32;34982;-73
2022/11/15 00:13:45;;;;;;;3.50;2.75;;;;;;;5.69;89.74;99712.81;4443611;32;35110;-74
2022/11/15 00:16:31;;;;;;;1.92;1.80;;;;;;;5.31;92.35;99703.63;4454366;32;33508;-74
2022/11/15 00:19:18;;;;;;;4.40;4.03;;;;;;;5.20;92.49;99712.03;4454098;32;33267;-73
2022/11/15 00:22:04;;;;;;;2.80;2.58;;;;;;;5.21;92.20;99718.94;4455064;32;35199;-73
2022/11/15 00:24:51;;;;;;;2.22;2.12;;;;;;;5.35;91.65;99707.12;4443180;32;34648;-73
2022/11/15 00:27:37;;;;;;;1.87;1.77;;;;;;;5.98;88.28;99710.69;4455324;32;33587;-74
2022/11/15 00:30:24;;;;;;;2.55;2.35;;;;;;;5.20;92.15;99701.72;4455256;32;34858;-74
2022/11/15 00:33:10;;;;;;;1.98;1.85;;;;;;;5.36;91.74;99708.00;4454312;32;35032;-73
2022/11/15 00:36:06;;;;;;;3.00;2.80;;;;;;;5.41;92.70;99707.22;4454329;32;35396;-73
2022/11/15 00:38:52;;;;;;;1.90;1.73;;;;;;;4.91;93.22;99699.50;4454245;32;33543;-74
2022/11/15 00:41:39;;;;;;;1.60;1.50;;;;;;;5.58;91.21;99704.06;4455294;32;33510;-74
2022/11/15 00:44:25;;;;;;;8.55;7.68;;;;;;;5.29;89.99;99705.31;4455249;32;35199;-74
2022/11/15 00:47:11;;;;;;;2.25;2.15;;;;;;;5.96;87.74;99708.91;4455160;32;34592;-74
2022/11/15 00:49:58;;;;;;;5.13;3.13;;;;;;;6.43;84.89;99698.31;4455063;32;33613;-73
2022/11/15 00:52:45;;;;;;;5.18;4.82;;;;;;;6.81;81.76;99695.28;4454241;32;33982;-74
2022/11/15 00:55:32;;;;;;;3.70;3.25;;;;;;;6.60;81.12;99701.97;4453890;32;36033;-73
2022/11/15 00:58:18;;;;;;;4.37;3.33;;;;;;;6.33;83.53;99691.31;4453689;32;34438;-73
2022/11/15 01:01:09;;;;;;;2.62;2.30;;;;;;;5.89;86.40;99689.84;4455071;32;34388;-73
2022/11/15 01:03:55;;;;;;;2.92;2.72;;;;;;;5.42;88.26;99675.41;4454170;32;34041;-73
2022/11/15 01:06:46;;;;;;;6.28;5.82;;;;;;;5.07;92.21;99674.84;4454123;32;35147;-73
2022/11/15 01:09:33;;;;;;;3.33;3.12;;;;;;;5.23;90.79;99670.78;4454979;32;34473;-73
2022/11/15 01:12:19;;;;;;;4.10;3.70;;;;;;;5.04;93.41;99670.47;4454934;32;33561;-73
2022/11/15 01:15:06;;;;;;;4.43;4.03;;;;;;;5.07;93.55;99661.94;4454893;32;33936;-74
2022/11/15 01:17:52;;;;;;;;;;;;;;;5.42;92.37;99670.22;4455216;32;35077;-73
2022/11/15 01:20:41;;;;;;;2.92;2.72;;;;;;;5.17;93.34;99673.25;4454969;32;34298;-73
2022/11/15 01:23:27;;;;;;;2.25;2.12;;;;;;;5.71;90.68;99667.19;4453740;32;33337;-73
2022/11/15 01:26:15;;;;;;;4.10;3.80;;;;;;;5.56;90.45;99659.22;4454862;32;33858;-73
2022/11/15 01:29:01;;;;;;;2.62;2.33;;;;;;;5.74;90.88;99656.91;4453845;32;35889;-73
2022/11/15 01:31:48;;;;;;;2.17;1.98;;;;;;;5.39;91.46;99651.25;4454766;32;35338;-74
2022/11/15 01:34:34;;;;;;;7.45;4.65;;;;;;;5.61;91.34;99655.00;4454883;32;33573;-73
2022/11/15 01:37:20;;;;;;;2.83;2.65;;;;;;;5.55;91.44;99653.19;4453763;32;33799;-74
2022/11/15 01:40:08;;;;;;;2.85;2.58;;;;;;;6.05;89.99;99647.00;4454534;32;35184;-73
2022/11/15 01:42:54;;;;;;;4.53;4.10;;;;;;;5.97;88.83;99646.06;4453663;32;34496;-73
2022/11/15 01:45:40;;;;;;;6.60;5.97;;;;;;;6.00;89.53;99646.06;4454569;32;34390;-75
2022/11/15 01:48:32;;;;;;;2.90;2.67;;;;;;;6.14;88.57;99652.31;4453784;32;34665;-74
2022/11/15 01:51:20;;;;;;;2.80;2.60;;;;;;;6.35;88.74;99643.03;4453516;32;35159;-74
2022/11/15 01:54:10;;;;;;;26.50;4.90;;;;;;;6.48;87.77;99647.50;4453504;32;35249;-74
2022/11/15 01:57:01;;;;;;;1.23;1.23;;;;;;;6.29;88.60;99643.00;4453271;32;33532;-74
2022/11/15 01:59:48;;;;;;;4.85;3.90;;;;;;;6.10;89.19;99639.31;4453177;32;34066;-74
2022/11/15 02:02:36;;;;;;;2.30;2.10;;;;;;;5.89;89.64;99649.38;4453484;32;35532;-74
2022/11/15 02:05:22;;;;;;;1.33;1.08;;;;;;;6.10;88.58;99635.00;4453497;32;35364;-74
2022/11/15 02:08:19;;;;;;;3.15;2.28;;;;;;;6.17;89.58;99629.03;4452962;32;33331;-73
2022/11/15 02:11:09;;;;;;;6.20;3.33;;;;;;;6.29;87.89;99622.31;4455023;32;33819;-74
2022/11/15 02:13:57;;;;;;;8.60;5.50;;;;;;;6.39;88.34;99624.12;4456165;32;36018;-73
2022/11/15 02:17:09;;;;;;;1.75;1.62;;;;;;;6.60;86.46;99614.00;4455286;32;35310;-74
2022/11/15 02:20:28;;;;;;;4.93;3.85;;;;;;;6.93;84.25;99620.31;4456266;32;34154;-74
2022/11/15 02:23:33;;;;;;;;;;;;;;;6.37;86.18;99613.78;4456411;32;34851;-74
2022/11/15 02:26:45;;;;;;;3.83;3.45;;;;;;;6.67;85.51;99617.53;4455883;32;35397;-74
2022/11/15 02:29:53;;;;;;;3.95;3.65;;;;;;;6.33;86.42;99614.56;4436384;32;34711;-74
2022/11/15 02:32:59;;;;;;;4.22;3.70;;;;;;;6.18;87.26;99609.25;4456104;32;34331;-73
2022/11/15 02:35:52;;;;;;;3.17;2.90;;;;;;;5.47;91.43;99606.59;4456043;32;34844;-73
2022/11/15 02:39:19;;;;;;;2.37;2.28;;;;;;;5.71;90.94;99610.34;4455197;32;35207;-74
2022/11/15 02:43:56;;;;;;;1.12;1.08;;;;;;;5.55;90.69;99613.59;4455946;32;35100;-73
2022/11/15 02:45:25;;;;;;;1.52;1.42;;;;;;;5.55;91.17;99600.69;4455862;32;34483;-73
2022/11/15 02:48:12;;;;;;;2.80;2.05;;;;;;;5.87;90.73;99609.69;4454530;32;34126;-73
2022/11/15 02:50:59;;;;;;;3.00;2.70;;;;;;;5.66;92.31;99599.09;4454762;32;35899;-73
2022/11/15 02:53:45;;;;;;;1.20;1.15;;;;;;;5.19;94.07;99601.84;4454963;32;35323;-73
2022/11/15 02:56:32;;;;;;;1.85;1.75;;;;;;;5.56;93.43;99598.13;4454677;32;32747;-74
2022/11/15 02:59:41;;;;;;;1.30;1.25;;;;;;;5.68;92.60;99603.44;4455889;32;34604;-73
2022/11/15 03:02:46;;;;;;;1.58;1.48;;;;;;;6.03;90.40;99608.19;4454895;32;36013;-73
2022/11/15 03:05:42;;;;;;;1.15;1.10;;;;;;;5.67;92.12;99606.88;4455890;32;35266;-74
2022/11/15 03:08:36;;;;;;;3.20;2.78;;;;;;;5.88;91.58;99601.09;4455843;32;33569;-74
2022/11/15 03:11:23;;;;;;;5.78;2.75;;;;;;;6.63;87.76;99595.91;4454629;32;33915;-74
2022/11/15 03:14:09;;;;;;;;;;;;;;;6.58;88.25;99595.00;4455068;32;36011;-74
2022/11/15 03:17:09;;;;;;;5.93;2.80;;;;;;;6.76;87.54;99596.91;4455846;32;34794;-73
2022/11/15 03:19:57;;;;;;;1.92;1.58;;;;;;;6.42;89.70;99593.09;4455588;32;34307;-74
2022/11/15 03:22:45;;;;;;;2.40;2.20;;;;;;;6.64;88.64;99584.72;4455791;32;34003;-73
2022/11/15 03:25:33;;;;;;;2.10;1.87;;;;;;;7.07;87.36;99588.50;4454540;32;35096;-73
2022/11/15 03:28:23;;;;;;;1.98;1.87;;;;;;;6.99;86.72;99584.16;4454746;32;34499;-74
2022/11/15 03:34:27;;;;;;;2.08;1.65;;;;;;;6.56;89.78;99570.81;4454792;32;34610;-73
2022/11/15 03:37:20;;;;;;;2.42;2.03;;;;;;;6.91;87.51;99569.41;4455623;32;34948;-73
2022/11/15 03:40:07;;;;;;;1.23;1.15;;;;;;;6.58;89.49;99574.31;4454623;32;34422;-74
2022/11/15 03:43:02;;;;;;;0.93;0.93;;;;;;;6.94;87.37;99572.88;4455595;32;34613;-73
2022/11/15 03:45:58;;;;;;;2.17;1.98;;;;;;;6.76;88.68;99572.72;4454606;32;34712;-73
2022/11/15 03:49:07;;;;;;;2.00;1.87;;;;;;;7.40;85.45;99552.47;4455463;32;34992;-74
2022/11/15 03:51:57;;;;;;;2.65;2.45;;;;;;;6.86;85.95;99550.38;4454431;32;35086;-73
2022/11/15 03:54:52;;;;;;;2.92;2.78;;;;;;;6.23;90.03;99567.06;4454533;32;33447;-73
2022/11/15 03:57:39;;;;;;;2.30;2.12;;;;;;;6.11;90.81;99560.91;4454645;32;33860;-73
2022/11/15 04:00:26;;;;;;;1.00;0.93;;;;;;;6.63;88.82;99551.06;4455213;32;35119;-73
2022/11/15 04:03:12;;;;;;;3.40;3.10;;;;;;;6.47;89.19;99550.06;4454481;32;34609;-73
2022/11/15 04:05:59;;;;;;;0.82;0.82;;;;;;;6.43;91.09;99540.53;4455451;32;34299;-73
2022/11/15 04:08:45;;;;;;;2.28;1.75;;;;;;;7.02;87.58;99544.44;4455505;32;33910;-73
2022/11/15 04:11:31;;;;;;;3.40;2.10;;;;;;;6.88;87.84;99551.25;4454347;32;35040;-73
2022/11/15 04:14:18;;;;;;;1.50;1.40;;;;;;;6.83;87.80;99548.66;4455311;32;34469;-73
2022/11/15 04:17:04;;;;;;;2.25;2.05;;;;;;;7.25;86.10;99544.59;4455432;32;33459;-73
2022/11/15 04:26:11;;;;;;;1.40;1.30;;;;;;;7.22;85.35;99555.81;4454523;32;34408;-73
2022/11/15 04:32:04;;;;;;;2.05;1.42;;;;;;;7.40;85.38;99536.91;4453664;32;33949;-73
2022/11/15 04:34:51;;;;;;;0.75;0.75;;;;;;;7.50;84.45;99542.13;4454249;32;35935;-73
2022/11/15 04:37:37;;;;;;;3.20;2.92;;;;;;;7.61;84.49;99530.13;4455201;32;35411;-73
2022/11/15 04:40:23;;;;;;;3.30;3.00;;;;;;;7.76;83.79;99517.22;4454304;32;33712;-74
2022/11/15 04:43:10;;;;;;;1.02;1.02;;;;;;;7.48;85.44;99525.72;4455202;32;33834;-74
2022/11/15 04:45:56;;;;;;;1.62;1.42;;;;;;;7.29;85.86;99523.06;4455087;32;35229;-74
2022/11/15 04:48:43;;;;;;;0.80;0.80;;;;;;;7.13;87.33;99513.44;4455133;32;34498;-74
2022/11/15 04:51:29;;;;;;;1.70;1.60;;;;;;;7.22;85.82;99526.47;4454103;32;34404;-74
2022/11/15 04:54:16;;;;;;;5.68;1.55;;;;;;;6.80;88.51;99528.78;4454229;32;33974;-74
2022/11/15 04:57:03;;;;;;;1.23;1.20;;;;;;;6.74;88.64;99533.03;4455035;32;35852;-74
2022/11/15 04:59:49;;;;;;;1.52;1.33;;;;;;;7.40;85.96;99530.88;4455218;32;34645;-74
2022/11/15 05:05:41;;;;;;;1.80;1.70;;;;;;;7.12;86.14;99524.69;4454939;32;33816;-74
2022/11/15 05:08:27;;;;;;;1.02;1.02;;;;;;;6.96;87.84;99526.31;4455041;32;35135;-74
2022/11/15 05:11:14;;;;;;;2.60;2.37;;;;;;;6.95;89.05;99532.31;4455010;32;34005;-73
2022/11/15 05:14:00;;;;;;;1.60;1.50;;;;;;;7.22;86.70;99521.28;4455042;32;34407;-74
2022/11/15 05:16:46;;;;;;;4.25;2.85;;;;;;;7.53;85.29;99526.63;4454988;32;33995;-74
2022/11/15 05:19:33;;;;;;;3.35;2.22;;;;;;;7.37;85.45;99531.72;4453691;32;34968;-74
2022/11/15 05:22:19;;;;;;;1.30;1.30;;;;;;;7.42;85.26;99523.97;4454825;32;34531;-74
2022/11/15 05:25:06;;;;;;;3.37;2.95;;;;;;;7.36;86.83;99514.44;4453472;32;33475;-73
2022/11/15 05:27:53;;;;;;;1.50;1.40;;;;;;;7.51;85.57;99517.97;4443098;32;34596;-73
2022/11/15 05:30:39;;;;;;;1.80;1.70;;;;;;;7.49;86.12;99509.34;4453814;32;35180;-74
2022/11/15 05:33:26;;;;;;;2.47;2.28;;;;;;;7.64;85.33;99499.03;4454711;32;34715;-74
2022/11/15 05:36:27;;;;;;;1.35;0.90;;;;;;;7.99;83.23;99500.84;4454733;32;33715;-74
2022/11/15 05:39:14;;;;;;;0.88;0.88;;;;;;;6.98;88.12;99502.12;4453801;32;34642;-74
2022/11/15 05:42:12;;;;;;;2.10;2.00;;;;;;;6.87;89.33;99505.53;4454789;32;35077;-74
2022/11/15 05:44:59;;;;;;;2.30;2.17;;;;;;;7.07;88.28;99503.06;4452266;32;34598;-73
2022/11/15 05:47:47;;;;;;;3.75;2.85;;;;;;;7.62;85.63;99494.69;4454571;32;33632;-74
2022/11/15 05:50:36;;;;;;;2.40;2.22;;;;;;;7.64;85.14;99509.41;4454317;32;34778;-74
2022/11/15 05:53:24;;;;;;;1.33;1.23;;;;;;;7.17;87.64;99512.63;4453645;32;35794;-74
2022/11/15 05:56:10;;;;;;;2.42;2.22;;;;;;;8.11;83.09;99516.44;4453607;32;34916;-74
2022/11/15 05:58:57;;;;;;;0.75;0.75;;;;;;;7.55;85.07;99514.53;4454530;32;33564;-73
2022/11/15 06:01:45;;;;;;;0.85;0.85;;;;;;;7.68;84.51;99510.28;4453119;32;34142;-73
2022/11/15 06:04:32;;;;;;;;;;;;;;;7.77;84.65;99500.78;4453490;32;35166;-74
2022/11/15 06:07:18;;;;;;;1.27;1.27;;;;;;;8.21;82.16;99493.13;4454346;32;34910;-74
2022/11/15 06:10:06;;;;;;;2.20;2.00;;;;;;;8.06;83.32;99506.91;4454147;32;33554;-73
2022/11/15 06:12:59;;;;;;;2.28;2.08;;;;;;;7.88;83.40;99499.97;4453039;32;33794;-74
2022/11/15 06:15:45;;;;;;;2.67;2.25;;;;;;;7.94;84.39;99503.44;4453245;32;35799;-74
2022/11/15 06:18:33;;;;;;;3.05;2.62;;;;;;;8.18;83.30;99504.34;4454112;32;34183;-74
2022/11/15 06:21:20;;;;;;;2.65;1.98;;;;;;;8.16;83.41;99503.47;4453148;32;33529;-74
2022/11/15 06:24:07;;;;;;;0.90;0.90;;;;;;;8.31;82.83;99507.81;4453916;32;34042;-74
2022/11/15 06:26:53;;;;;;;1.25;1.20;;;;;;;8.50;82.24;99509.59;4452767;32;35388;-74
2022/11/15 06:29:40;;;;;;;0.77;0.77;;;;;;;8.29;83.24;99515.59;4453931;32;34433;-74
2022/11/15 06:32:26;;;;;;;2.00;1.90;;;;;;;8.18;84.25;99517.31;4452884;32;34584;-74
2022/11/15 06:35:13;;;;;;;1.90;1.80;;;;;;;8.26;83.97;99519.91;4452959;32;34740;-74
2022/11/15 06:38:05;;;;;;;1.73;1.62;;;;;;;8.47;82.32;99514.81;4452934;32;34945;-74
2022/11/15 06:40:51;;;;;;;2.05;1.95;;;;;;;8.26;83.64;99525.09;4452491;32;32995;-74
2022/11/15 06:43:38;;;;;;;1.37;1.27;;;;;;;8.43;83.49;99518.22;4452634;32;33386;-74
2022/11/15 06:46:24;;;;;;;1.23;1.17;;;;;;;8.52;82.99;99512.19;4452795;32;33939;-74
2022/11/15 06:49:11;;;;;;;1.90;1.80;;;;;;;8.44;82.87;99514.78;4453734;32;35194;-74
2022/11/15 06:51:57;;;;;;;2.20;2.05;;;;;;;8.61;81.84;99511.31;4452328;32;33826;-74
2022/11/15 06:54:44;;;;;;;1.58;1.48;;;;;;;8.71;81.83;99511.31;4453702;32;34405;-74
2022/11/15 06:57:32;;;;;;;2.80;1.92;;;;;;;8.73;82.20;99516.50;4455620;32;33960;-74
2022/11/15 07:00:19;;;;;;;2.15;2.03;;;;;;;8.51;82.75;99513.06;4454452;32;34645;-74
2022/11/15 07:03:06;;;;;;;1.23;1.23;;;;;;;8.46;82.95;99505.28;4454830;32;34380;-74
2022/11/15 07:05:54;;;;;;;1.90;1.80;;;;;;;8.54;83.12;99500.06;4455650;32;33587;-74
2022/11/15 07:08:41;;;;;;;4.50;2.75;;;;;;;8.71;82.33;99498.34;4454431;32;32831;-74
2022/11/15 07:11:27;;;;;;;;;;;;;;;8.94;81.59;99497.44;4455096;32;35163;-74
2022/11/15 07:14:14;;;;;;;0.82;0.82;;;;;;;8.76;83.33;99500.94;4455987;32;35296;-74
2022/11/15 07:17:03;;;;;;;1.52;1.45;;;;;;;8.67;82.71;99495.75;4454944;32;34269;-73
2022/11/15 07:19:50;;;;;;;1.25;1.15;;;;;;;8.79;82.38;99494.88;4454577;32;33929;-74
2022/11/15 07:22:37;;;;;;;3.70;3.37;;;;;;;8.72;83.21;99494.03;4455834;32;36019;-74
2022/11/15 07:25:23;;;;;;;2.70;2.50;;;;;;;8.85;82.95;99489.69;4455475;32;34513;-74
2022/11/15 07:28:09;;;;;;;5.10;4.60;;;;;;;9.19;81.75;99492.19;4454796;32;33821;-75
2022/11/15 07:30:56;;;;;;;2.35;2.17;;;;;;;9.20;81.34;99489.59;4454880;32;33981;-75
2022/11/15 07:33:42;;;;;;;3.58;3.25;;;;;;;9.28;80.92;99490.47;4455570;32;35061;-74
2022/11/15 07:36:29;;;;;;;3.03;2.85;;;;;;;9.15;82.11;99493.94;4455665;32;35339;-74
2022/11/15 07:39:15;;;;;;;1.48;1.37;;;;;;;9.08;82.74;99492.25;4455713;32;33519;-75
2022/11/15 07:45:07;;;;;;;2.22;2.03;;;;;;;9.35;81.70;99501.69;4455625;32;35330;-74
2022/11/15 07:47:55;;;;;;;2.25;2.05;;;;;;;9.74;79.24;99504.13;4455613;32;35228;-72
2022/11/15 07:50:42;;;;;;;5.60;5.12;;;;;;;9.71;79.61;99499.81;4455489;32;34164;-72
2022/11/15 07:53:28;;;;;;;;;;;;;;;9.76;79.59;99492.88;4454891;32;34884;-74
2022/11/15 07:56:15;;;;;;;1.62;1.55;;;;;;;9.85;78.34;99487.59;4454676;32;36181;-73
2022/11/15 07:59:01;;;;;;;3.22;2.80;;;;;;;9.69;78.55;99483.37;4455452;32;34636;-74
2022/11/15 08:01:49;;;;;;;1.12;1.00;;;;;;;9.48;80.25;99492.97;4455579;32;34150;-73
2022/11/15 08:04:35;;;;;;;2.25;1.80;;;;;;;9.47;80.56;99493.84;4454544;32;34028;-76
2022/11/15 08:07:22;;;;;;;6.32;5.80;;;;;;;9.50;80.05;99479.97;4454208;32;35066;-73
2022/11/15 08:10:11;;;;;;;12.32;6.60;;;;;;;9.75;80.65;99479.88;4455395;32;34540;-70
2022/11/15 08:13:02;;;;;;;5.75;4.75;;;;;;;10.06;79.32;99470.16;4455395;32;33627;-70
2022/11/15 08:15:48;;;;;;;8.57;4.22;;;;;;;9.93;79.33;99456.34;4455335;32;34573;-71
2022/11/15 08:18:41;;;;;;;5.47;3.35;;;;;;;10.38;78.59;99461.28;4455308;32;35211;-70
2022/11/15 08:21:27;;;;;;;2.77;2.30;;;;;;;9.93;76.97;99461.53;4455482;32;35184;-72
2022/11/15 08:24:14;;;;;;;1.05;1.02;;;;;;;9.89;76.76;99451.19;4453918;32;33859;-74
2022/11/15 08:27:00;;;;;;;;;;;;;;;9.74;78.44;99452.13;4455568;32;33950;-74
2022/11/15 08:29:48;;;;;;;1.62;1.50;;;;;;;9.81;78.19;99461.63;4455012;32;35348;-75
2022/11/15 08:32:35;;;;;;;3.10;2.90;;;;;;;9.71;78.46;99452.16;4454142;32;35395;-74
2022/11/15 08:35:21;;;;;;;0.90;0.90;;;;;;;9.94;77.08;99452.87;4455285;32;34383;-74
2022/11/15 08:38:14;;;;;;;3.30;3.00;;;;;;;9.33;79.96;99448.84;4455332;32;33953;-73
2022/11/15 08:41:03;;;;;;;0.98;0.88;;;;;;;9.56;78.07;99448.75;4453987;32;35540;-74
2022/11/15 08:43:49;;;;;;;2.30;2.05;;;;;;;9.05;80.65;99441.16;4454248;32;34343;-74
2022/11/15 08:46:35;;;;;;;1.40;1.35;;;;;;;9.06;80.54;99442.03;4455265;32;33398;-74
2022/11/15 08:49:22;;;;;;;2.47;2.28;;;;;;;9.12;80.94;99431.59;4454167;32;33964;-74
2022/11/15 08:52:09;;;;;;;1.27;1.27;;;;;;;9.46;79.74;99432.34;4455140;32;34973;-74
2022/11/15 08:54:55;;;;;;;3.67;3.30;;;;;;;9.45;79.34;99421.94;4454234;32;34488;-74
2022/11/15 08:57:41;;;;;;;2.67;2.47;;;;;;;9.42;79.93;99424.56;4455116;32;33584;-74
2022/11/15 09:00:28;;;;;;;2.05;1.92;;;;;;;9.28;81.00;99430.69;4455104;32;33962;-74
2022/11/15 09:03:15;;;;;;;4.07;3.67;;;;;;;9.33;81.40;99442.78;4455126;32;35886;-74
2022/11/15 09:06:01;;;;;;;2.20;1.50;;;;;;;9.52;79.91;99438.38;4454999;32;35201;-74
2022/11/15 09:08:48;;;;;;;3.92;3.55;;;;;;;9.53;79.44;99445.28;4454844;32;33393;-74
2022/11/15 09:11:35;;;;;;;;;;;;;;;9.12;81.27;99436.78;4455353;32;34000;-74
2022/11/15 09:14:21;;;;;;;2.12;1.98;;;;;;;8.98;81.77;99429.03;4454873;32;35300;-74
2022/11/15 09:17:08;;;;;;;1.85;1.70;;;;;;;9.09;82.19;99429.03;4453666;32;33832;-74
2022/11/15 09:19:55;;;;;;;3.92;3.62;;;;;;;9.32;82.30;99435.84;4454688;32;33567;-74
2022/11/15 09:22:41;;;;;;;0.70;0.70;;;;;;;9.03;82.52;99429.03;4454984;32;33935;-74
2022/11/15 09:25:28;;;;;;;1.65;1.55;;;;;;;9.36;82.19;99419.41;4454648;32;34961;-74
2022/11/15 09:28:15;;;;;;;1.30;1.25;;;;;;;9.58;81.47;99415.84;4453837;32;35096;-74
2022/11/15 09:31:04;;;;;;;3.58;2.47;;;;;;;9.91;81.07;99411.28;4454916;32;34239;-74
2022/11/15 09:33:51;;;;;;;3.08;2.17;;;;;;;10.03;80.21;99410.34;4443233;32;33943;-74
2022/11/15 09:36:37;;;;;;;2.67;2.37;;;;;;;9.90;81.15;99411.28;4453782;32;35202;-74
2022/11/15 09:39:24;;;;;;;3.95;2.50;;;;;;;9.77;81.20;99406.16;4454707;32;34509;-74
2022/11/15 09:42:46;;;;;;;2.67;2.42;;;;;;;9.99;81.99;99406.03;4453203;32;32558;-74
2022/11/15 09:45:56;;;;;;;1.55;1.45;;;;;;;10.33;78.39;99396.25;4454581;32;34062;-74
2022/11/15 09:48:38;;;;;;;1.25;1.20;;;;;;;10.16;79.40;99409.34;4453509;32;35009;-74
2022/11/15 09:51:15;;;;;;;2.83;2.25;;;;;;;10.52;77.36;99406.50;4454351;32;34509;-74
2022/11/15 09:53:49;;;;;;;1.67;1.58;;;;;;;10.48;77.31;99407.37;4453409;32;33604;-74
2022/11/15 09:56:41;;;;;;;2.90;2.08;;;;;;;10.40;78.02;99404.84;4453129;32;34689;-74
2022/11/15 09:59:36;;;;;;;2.92;2.70;;;;;;;10.44;78.01;99397.00;4453102;32;35129;-74
2022/11/15 10:02:07;;;;;;;6.82;4.65;;;;;;;10.28;78.17;99392.78;4454112;32;34548;-74
2022/11/15 10:04:37;;;;;;;4.50;3.78;;;;;;;10.14;78.80;99389.44;4454117;32;33420;-74
2022/11/15 10:07:20;;;;;;;2.35;2.15;;;;;;;10.13;80.07;99385.09;4454088;32;34702;-74
2022/11/15 10:10:30;;;;;;;2.17;2.08;;;;;;;10.06;79.54;99376.50;4454052;32;35270;-74
2022/11/15 10:12:58;;;;;;;3.22;2.65;;;;;;;10.23;78.88;99374.59;4414617;32;33699;-74
2022/11/15 10:15:27;;;;;;;2.45;2.20;;;;;;;9.65;80.44;99370.72;4453991;32;33484;-74
2022/11/15 10:18:19;;;;;;;5.68;2.45;;;;;;;9.96;80.14;99375.69;4440100;32;34053;-74
2022/11/15 10:20:50;;;;;;;3.70;3.30;;;;;;;10.38;78.58;99371.03;4452712;32;35296;-74
2022/11/15 10:23:21;;;;;;;8.88;2.25;;;;;;;9.93;80.82;99367.91;4452714;32;34387;-74
2022/11/15 10:25:55;;;;;;;4.03;3.62;;;;;;;9.81;81.13;99361.06;4453750;32;34244;-74
2022/11/15 10:28:30;;;;;;;3.05;2.83;;;;;;;10.19;80.33;99359.88;4452722;32;34837;-75
2022/11/15 10:31:04;;;;;;;2.28;2.08;;;;;;;10.05;79.58;99359.16;4453563;32;35147;-75
2022/11/15 10:33:37;;;;;;;6.85;3.95;;;;;;;10.12;78.50;99354.75;4454640;32;34470;-74
2022/11/15 10:36:08;;;;;;;4.55;4.05;;;;;;;9.94;78.87;99356.62;4454673;32;33468;-74
2022/11/15 10:38:49;;;;;;;5.25;3.87;;;;;;;10.24;78.42;99347.69;4455782;32;34057;-74
2022/11/15 10:41:27;;;;;;;3.22;2.50;;;;;;;10.13;79.20;99346.06;4454531;32;35560;-75
2022/11/15 10:44:18;;;;;;;2.20;2.03;;;;;;;9.95;79.84;99342.75;4454553;32;34754;-74
2022/11/15 10:47:24;;;;;;;2.10;1.92;;;;;;;10.01;80.32;99337.50;4454562;32;33361;-74
2022/11/15 10:50:01;;;;;;;3.92;2.60;;;;;;;9.91;80.27;99340.19;4452735;32;33917;-74
2022/11/15 10:52:31;;;;;;;6.25;5.07;;;;;;;9.73;80.55;99336.84;4454509;32;35146;-74
2022/11/15 10:55:18;;;;;;;3.17;2.87;;;;;;;10.04;79.68;99324.47;4455618;32;34646;-74
2022/11/15 10:57:55;;;;;;;5.10;4.70;;;;;;;9.76;81.24;99330.75;4454524;32;34382;-74
2022/11/15 11:00:33;;;;;;;2.72;2.53;;;;;;;10.07;79.57;99311.41;4454525;32;34784;-75
2022/11/15 11:03:06;;;;;;;5.37;4.85;;;;;;;9.74;81.37;99306.50;4454690;32;35170;-75
2022/11/15 11:05:37;;;;;;;3.22;2.75;;;;;;;9.83;82.06;99302.09;4455540;32;34666;-75
2022/11/15 11:08:15;;;;;;;3.95;3.58;;;;;;;10.18;80.15;99298.31;4454549;32;34547;-75
2022/11/15 11:10:58;;;;;;;10.05;3.20;;;;;;;10.22;79.04;99296.56;4454397;32;34082;-75
2022/11/15 11:13:36;;;;;;;5.20;4.80;;;;;;;10.19;79.36;99309.59;4454133;32;34858;-75
2022/11/15 11:16:13;;;;;;;3.78;3.42;;;;;;;10.36;78.90;99297.31;4455508;32;34365;-75
2022/11/15 11:18:59;;;;;;;2.28;2.15;;;;;;;10.14;78.78;99296.62;4455558;32;34296;-75
2022/11/15 11:21:55;;;;;;;3.40;3.10;;;;;;;10.27;78.23;99289.56;4455488;32;34032;-75
2022/11/15 11:24:34;;;;;;;2.05;1.95;;;;;;;10.22;78.46;99278.34;4455519;32;34910;-75
2022/11/15 11:27:43;;;;;;;5.03;4.00;;;;;;;10.14;78.95;99281.00;4454355;32;33629;-75
2022/11/15 11:30:11;;;;;;;3.37;2.95;;;;;;;9.85;79.32;99289.09;4454227;32;34232;-75
2022/11/15 11:32:58;;;;;;;2.40;2.17;;;;;;;9.76;79.37;99279.63;4455359;32;34903;-74
2022/11/15 11:35:31;;;;;;;;;;;;;;;9.70;80.68;99284.87;4455544;32;35093;-74
2022/11/15 11:38:10;;;;;;;2.85;2.37;;;;;;;9.98;79.56;99282.03;4454328;32;34445;-75
2022/11/15 11:40:53;;;;;;;2.17;1.98;;;;;;;9.94;79.11;99273.41;4454265;32;34268;-74
2022/11/15 11:43:38;;;;;;;2.22;2.00;;;;;;;9.74;80.55;99278.78;4454245;32;33869;-74
2022/11/15 11:46:40;;;;;;;5.03;4.45;;;;;;;9.53;81.08;99282.41;4454139;32;35122;-75
2022/11/15 11:49:12;;;;;;;13.80;3.85;;;;;;;9.00;84.17;99284.47;4455337;32;35083;-74
2022/11/15 11:51:51;;;;;;;2.47;2.00;;;;;;;9.56;82.50;99277.16;4455237;32;33474;-74
2022/11/15 11:54:38;;;;;;;3.50;2.60;;;;;;;9.59;82.46;99274.56;4454002;32;33872;-74
2022/11/15 11:57:22;;;;;;;3.60;3.30;;;;;;;9.53;83.72;99259.03;4454181;32;35765;-75
2022/11/15 11:59:57;;;;;;;3.42;2.92;;;;;;;9.22;84.53;99255.78;4441386;32;33661;-74
2022/11/15 12:02:35;;;;;;;1.58;1.48;;;;;;;9.40;84.50;99244.38;4454166;32;33718;-74
2022/11/15 12:05:12;;;;;;;6.75;4.15;;;;;;;9.28;83.93;99251.41;4454055;32;34009;-74
2022/11/15 12:07:41;;;;;;;2.78;2.53;;;;;;;9.47;84.18;99240.88;4455183;32;35712;-73
2022/11/15 12:10:18;;;;;;;2.35;2.15;;;;;;;9.85;81.49;99232.72;4441173;32;35081;-73
2022/11/15 12:12:51;;;;;;;4.65;4.15;;;;;;;8.88;87.87;99224.81;4455108;32;34111;-72
2022/11/15 12:15:30;;;;;;;7.55;6.80;;;;;;;9.55;84.67;99227.78;4453850;32;34966;-72
2022/11/15 12:18:00;;;;;;;3.25;3.03;;;;;;;9.55;83.40;99231.28;4441274;32;35182;-72
2022/11/15 12:20:34;;;;;;;3.35;3.05;;;;;;;9.33;84.38;99229.72;4453945;32;33752;-73
2022/11/15 12:23:13;;;;;;;4.12;2.83;;;;;;;9.48;83.65;99227.84;4453960;32;33460;-71
2022/11/15 12:25:49;;;;;;;3.55;3.25;;;;;;;8.98;85.12;99220.41;4454866;32;34002;-71
2022/11/15 12:28:21;;;;;;;4.12;3.83;;;;;;;9.27;83.72;99213.28;4453828;32;34964;-72
2022/11/15 12:30:54;;;;;;;5.12;3.92;;;;;;;9.10;85.73;99207.34;4454914;32;34585;-72
2022/11/15 12:33:36;;;;;;;4.35;4.05;;;;;;;9.17;85.47;99205.59;4441578;32;32598;-71
2022/11/15 12:36:23;;;;;;;1.02;1.02;;;;;;;9.17;85.70;99200.37;4453863;32;34091;-71
2022/11/15 12:39:06;;;;;;;9.30;4.90;;;;;;;9.39;84.79;99201.06;4455077;32;35086;-71
2022/11/15 12:41:40;;;;;;;5.03;4.53;;;;;;;9.39;84.67;99201.06;4441194;32;34101;-72
2022/11/15 12:44:30;;;;;;;2.28;1.98;;;;;;;9.27;85.72;99187.31;4453908;32;34247;-71
2022/11/15 12:47:02;;;;;;;3.53;2.78;;;;;;;9.80;82.75;99184.25;4455053;32;34641;-73
2022/11/15 12:49:30;;;;;;;2.53;2.37;;;;;;;9.63;83.89;99184.41;4441269;32;34454;-73
2022/11/15 12:51:59;;;;;;;3.35;3.05;;;;;;;9.37;85.37;99188.13;4453670;32;33937;-73
2022/11/15 12:54:29;;;;;;;3.62;3.12;;;;;;;9.33;85.77;99190.75;4454142;32;33691;-73
2022/11/15 12:57:03;;;;;;;2.83;2.62;;;;;;;9.13;86.80;99189.16;4454776;32;33387;-73
2022/11/15 12:59:47;;;;;;;2.05;1.92;;;;;;;9.43;85.65;99182.84;4454874;32;35988;-72
2022/11/15 13:02:22;;;;;;;3.62;2.28;;;;;;;9.31;86.38;99182.94;4454892;32;34465;-72
2022/11/15 13:04:52;;;;;;;1.33;1.25;;;;;;;9.34;85.72;99192.47;4454853;32;33998;-73
2022/11/15 13:07:35;;;;;;;3.00;2.80;;;;;;;9.71;85.03;99192.16;4453635;32;33960;-73
2022/11/15 13:10:10;;;;;;;1.77;1.67;;;;;;;9.38;85.87;99188.97;4452619;32;35927;-73
2022/11/15 13:12:45;;;;;;;4.18;3.28;;;;;;;9.24;85.53;99191.66;4454516;32;34670;-73
2022/11/15 13:15:18;;;;;;;1.73;1.62;;;;;;;8.63;88.93;99182.53;4454524;32;33502;-73
2022/11/15 13:17:52;;;;;;;2.45;2.25;;;;;;;8.96;86.56;99170.22;4454451;32;33903;-71
2022/11/15 13:20:31;;;;;;;6.93;4.40;;;;;;;8.87;88.26;99169.41;4453455;32;35095;-73
2022/11/15 13:23:02;;;;;;;4.68;2.83;;;;;;;9.20;86.68;99162.25;4454578;32;34352;-74
2022/11/15 13:25:39;;;;;;;8.70;4.97;;;;;;;9.21;86.87;99168.31;4454383;32;34955;-73
2022/11/15 13:28:13;;;;;;;5.07;4.60;;;;;;;8.97;87.59;99159.84;4454409;32;34746;-73
2022/11/15 13:30:53;;;;;;;2.80;2.60;;;;;;;9.20;86.71;99164.84;4453311;32;34896;-74
2022/11/15 13:33:32;;;;;;;2.17;2.08;;;;;;;9.16;86.04;99163.16;4440533;32;34450;-72